sensor_id;sensor_type;location;lat;lon;timestamp;P1;P2;P0
74434;PMS7003;62867;52.038;29.256;2023-04-03T00:01:43;9;6.8;3.8
74434;PMS7003;62867;52.038;29.256;2023-04-03T00:06:19;7.2;5.8;3.2
74434;PMS7003;62867;52.038;29.256;2023-04-03T00:11:06;8.2;6.8;4
74434;PMS7003;62867;52.038;29.256;2023-04-03T00:16:33;10.4;7.6;4.2
74434;PMS7003;62867;52.038;29.256;2023-04-03T00:21:19;7;5.6;3.4
74434;PMS7003;62867;52.038;29.256;2023-04-03T00:26:43;5.4;5;3.4
74434;PMS7003;62867;52.038;29.256;2023-04-03T00:31:19;5.8;5;2.8
74434;PMS7003;62867;52.038;29.256;2023-04-03T00:36:05;5.2;4.4;2.6
74434;PMS7003;62867;52.038;29.256;2023-04-03T00:41:33;4.4;3.6;2
74434;PMS7003;62867;52.038;29.256;2023-04-03T00:46:19;4.2;3.6;2.2
74434;PMS7003;62867;52.038;29.256;2023-04-03T00:51:45;4;3.2;2
74434;PMS7003;62867;52.038;29.256;2023-04-03T00:55:55;2.8;2.6;1.8
74434;PMS7003;62867;52.038;29.256;2023-04-03T01:00:55;6;4.8;2.8
74434;PMS7003;62867;52.038;29.256;2023-04-03T01:06:34;4.8;4;2.4
74434;PMS7003;62867;52.038;29.256;2023-04-03T01:11:27;5.4;4.2;2.4
74434;PMS7003;62867;52.038;29.256;2023-04-03T01:16:50;6.2;4.6;2.8
74434;PMS7003;62867;52.038;29.256;2023-04-03T01:21:31;11.2;8.2;4.8
74434;PMS7003;62867;52.038;29.256;2023-04-03T01:26:05;4.8;4.4;2.6
74434;PMS7003;62867;52.038;29.256;2023-04-03T01:31:43;6.6;4.4;2.2
74434;PMS7003;62867;52.038;29.256;2023-04-03T01:36:20;6.2;4.4;2.4
74434;PMS7003;62867;52.038;29.256;2023-04-03T01:41:45;4.2;3.4;2.2
74434;PMS7003;62867;52.038;29.256;2023-04-03T01:45:55;4.2;4.2;2.4
74434;PMS7003;62867;52.038;29.256;2023-04-03T01:51:05;5;3.8;2.4
74434;PMS7003;62867;52.038;29.256;2023-04-03T01:56:33;4.2;4;2.2
74434;PMS7003;62867;52.038;29.256;2023-04-03T02:01:05;5.5;3.8;2.5
74434;PMS7003;62867;52.038;29.256;2023-04-03T02:06:43;5.2;3.8;2.4
74434;PMS7003;62867;52.038;29.256;2023-04-03T02:11:19;4.2;3.6;2
74434;PMS7003;62867;52.038;29.256;2023-04-03T02:16:06;4;3.4;2.2
74434;PMS7003;62867;52.038;29.256;2023-04-03T02:21:33;3.6;3;1.8
74434;PMS7003;62867;52.038;29.256;2023-04-03T02:26:19;4.8;3.2;2
74434;PMS7003;62867;52.038;29.256;2023-04-03T02:31:33;4.8;3.4;1.8
74434;PMS7003;62867;52.038;29.256;2023-04-03T02:36:09;4.2;3.2;2.2
74434;PMS7003;62867;52.038;29.256;2023-04-03T02:40:59;3.4;2.8;1.4
74434;PMS7003;62867;52.038;29.256;2023-04-03T02:46:47;5.2;3.4;2
74434;PMS7003;62867;52.038;29.256;2023-04-03T02:50:55;4;3.2;2.2
74434;PMS7003;62867;52.038;29.256;2023-04-03T02:56:21;4.6;3.4;2
74434;PMS7003;62867;52.038;29.256;2023-04-03T03:01:27;2.5;2.5;1.5
74434;PMS7003;62867;52.038;29.256;2023-04-03T03:06:03;3.4;2.8;1.6
74434;PMS7003;62867;52.038;29.256;2023-04-03T03:11:33;5;3.4;2
74434;PMS7003;62867;52.038;29.256;2023-04-03T03:16:19;4.2;3.8;2.2
74434;PMS7003;62867;52.038;29.256;2023-04-03T03:21:43;3.2;2.8;1.4
74434;PMS7003;62867;52.038;29.256;2023-04-03T03:26:29;4;2.8;1.8
74434;PMS7003;62867;52.038;29.256;2023-04-03T03:31:06;3.2;2.8;1.4
74434;PMS7003;62867;52.038;29.256;2023-04-03T03:36:43;5.4;3.4;1.8
74434;PMS7003;62867;52.038;29.256;2023-04-03T03:40:55;5.8;4.8;2.6
74434;PMS7003;62867;52.038;29.256;2023-04-03T03:46:25;4.2;3.6;2
74434;PMS7003;62867;52.038;29.256;2023-04-03T03:51:19;4.2;3.4;1.8
74434;PMS7003;62867;52.038;29.256;2023-04-03T03:56:04;4.4;3.2;2
74434;PMS7003;62867;52.038;29.256;2023-04-03T04:01:43;4.5;3.8;2
74434;PMS7003;62867;52.038;29.256;2023-04-03T04:06:27;5.4;4;1.8
74434;PMS7003;62867;52.038;29.256;2023-04-03T04:11:15;3;2.6;1.6
74434;PMS7003;62867;52.038;29.256;2023-04-03T04:16:19;4.8;4.2;2.6
74434;PMS7003;62867;52.038;29.256;2023-04-03T04:21:13;4.6;3.4;2
74434;PMS7003;62867;52.038;29.256;2023-04-03T04:26:41;2.6;2.4;1.4
74434;PMS7003;62867;52.038;29.256;2023-04-03T04:31:03;2.6;2.6;1.4
74434;PMS7003;62867;52.038;29.256;2023-04-03T04:36:27;3.6;2.6;1.8
74434;PMS7003;62867;52.038;29.256;2023-04-03T04:40:55;3.8;2.4;1
74434;PMS7003;62867;52.038;29.256;2023-04-03T04:46:27;3.6;3.2;1.8
74434;PMS7003;62867;52.038;29.256;2023-04-03T04:51:45;3.2;2.8;1.8
74434;PMS7003;62867;52.038;29.256;2023-04-03T04:56:13;4.2;2.8;1.8
74434;PMS7003;62867;52.038;29.256;2023-04-03T05:01:27;2.8;2.2;1.2
74434;PMS7003;62867;52.038;29.256;2023-04-03T05:05:55;3;3;2
74434;PMS7003;62867;52.038;29.256;2023-04-03T05:10:55;3.2;2.8;1.6
74434;PMS7003;62867;52.038;29.256;2023-04-03T05:16:43;3.8;2.6;1.4
74434;PMS7003;62867;52.038;29.256;2023-04-03T05:21:04;2.4;2.2;1.2
74434;PMS7003;62867;52.038;29.256;2023-04-03T05:26:30;4;2.8;1.8
74434;PMS7003;62867;52.038;29.256;2023-04-03T05:31:19;4.6;3.6;2
74434;PMS7003;62867;52.038;29.256;2023-04-03T05:35:55;4.8;3.4;1.8
74434;PMS7003;62867;52.038;29.256;2023-04-03T05:41:45;4.8;3.4;2
74434;PMS7003;62867;52.038;29.256;2023-04-03T05:46:04;2.6;2.6;1.8
74434;PMS7003;62867;52.038;29.256;2023-04-03T05:51:30;5.2;4.8;2.2
74434;PMS7003;62867;52.038;29.256;2023-04-03T05:56:06;7;5.4;2.6
74434;PMS7003;62867;52.038;29.256;2023-04-03T06:00:56;4.2;3.6;2.6
74434;PMS7003;62867;52.038;29.256;2023-04-03T06:06:44;7;6;2.8
74434;PMS7003;62867;52.038;29.256;2023-04-03T06:10:55;7.4;5;3
74434;PMS7003;62867;52.038;29.256;2023-04-03T06:16:12;9.8;7.4;4.6
74434;PMS7003;62867;52.038;29.256;2023-04-03T06:21:09;7.8;5;3
74434;PMS7003;62867;52.038;29.256;2023-04-03T06:25:55;7.2;6.2;3.2
74434;PMS7003;62867;52.038;29.256;2023-04-03T06:31:44;6.4;6;3.2
74434;PMS7003;62867;52.038;29.256;2023-04-03T06:35:56;6.4;4.6;2.8
74434;PMS7003;62867;52.038;29.256;2023-04-03T06:41:25;6.8;5;2.8
74434;PMS7003;62867;52.038;29.256;2023-04-03T06:46:20;5.6;4.6;3
74434;PMS7003;62867;52.038;29.256;2023-04-03T06:51:04;8.4;7;3.6
74434;PMS7003;62867;52.038;29.256;2023-04-03T06:56:41;15.2;11.2;7.2
74434;PMS7003;62867;52.038;29.256;2023-04-03T07:01:04;11.4;10.4;6
74434;PMS7003;62867;52.038;29.256;2023-04-03T07:06:29;12.3;8.5;5.8
74434;PMS7003;62867;52.038;29.256;2023-04-03T07:11:10;13.4;10;5.8
74434;PMS7003;62867;52.038;29.256;2023-04-03T07:15:55;14.4;11;6.8
74434;PMS7003;62867;52.038;29.256;2023-04-03T07:21:44;13.2;10;6.4
74434;PMS7003;62867;52.038;29.256;2023-04-03T07:26:13;13.2;10.8;6.6
74434;PMS7003;62867;52.038;29.256;2023-04-03T07:31:26;8.4;7.2;4.6
74434;PMS7003;62867;52.038;29.256;2023-04-03T07:35:56;8.8;7.4;4.2
74434;PMS7003;62867;52.038;29.256;2023-04-03T07:40:56;9.6;8.2;4.8
74434;PMS7003;62867;52.038;29.256;2023-04-03T07:46:44;8.8;6.2;3.8
74434;PMS7003;62867;52.038;29.256;2023-04-03T07:51:28;8.6;7.4;4.4
74434;PMS7003;62867;52.038;29.256;2023-04-03T07:56:06;8;7.2;4
74434;PMS7003;62867;52.038;29.256;2023-04-03T08:01:18;12;9.2;5
74434;PMS7003;62867;52.038;29.256;2023-04-03T08:06:42;15;11.8;6.8
74434;PMS7003;62867;52.038;29.256;2023-04-03T08:11:20;9.2;7.6;4
74434;PMS7003;62867;52.038;29.256;2023-04-03T08:15:56;13.8;11;6.8
74434;PMS7003;62867;52.038;29.256;2023-04-03T08:21:44;13;9.6;5.6
74434;PMS7003;62867;52.038;29.256;2023-04-03T08:26:28;10.4;8.6;5.8
74434;PMS7003;62867;52.038;29.256;2023-04-03T08:31:44;8.6;7.4;4.4
74434;PMS7003;62867;52.038;29.256;2023-04-03T08:36:44;8.2;6.4;3.8
74434;PMS7003;62867;52.038;29.256;2023-04-03T08:40:59;11.8;8.6;5.2
74434;PMS7003;62867;52.038;29.256;2023-04-03T08:46:47;14.6;11.6;7
74434;PMS7003;62867;52.038;29.256;2023-04-03T08:51:26;26.2;20.4;11
74434;PMS7003;62867;52.038;29.256;2023-04-03T08:56:14;22.8;15.8;9.6
74434;PMS7003;62867;52.038;29.256;2023-04-03T09:00:57;17.2;13.4;8.4
74434;PMS7003;62867;52.038;29.256;2023-04-03T09:05:57;13.5;9.8;5.8
74434;PMS7003;62867;52.038;29.256;2023-04-03T09:11:47;14.8;12.4;7.2
74434;PMS7003;62867;52.038;29.256;2023-04-03T09:16:31;16.6;15;9.4
74434;PMS7003;62867;52.038;29.256;2023-04-03T09:21:44;15.8;11.6;8
74434;PMS7003;62867;52.038;29.256;2023-04-03T09:26:07;12.8;10.4;6.4
74434;PMS7003;62867;52.038;29.256;2023-04-03T09:31:06;9;8;4.6
74434;PMS7003;62867;52.038;29.256;2023-04-03T09:36:37;9.8;7;4.6
74434;PMS7003;62867;52.038;29.256;2023-04-03T09:41:28;11.8;9;5.8
74434;PMS7003;62867;52.038;29.256;2023-04-03T09:46:44;12;9;5.8
74434;PMS7003;62867;52.038;29.256;2023-04-03T09:51:20;10.6;8.8;5
74434;PMS7003;62867;52.038;29.256;2023-04-03T09:56:38;10.8;10.4;6.4
74434;PMS7003;62867;52.038;29.256;2023-04-03T10:01:48;12.6;10;6.4
74434;PMS7003;62867;52.038;29.256;2023-04-03T10:06:29;15;12.5;7.8
74434;PMS7003;62867;52.038;29.256;2023-04-03T10:12:02;19;14.8;8.6
74434;PMS7003;62867;52.038;29.256;2023-04-03T10:16:11;9.4;8.4;5
74434;PMS7003;62867;52.038;29.256;2023-04-03T10:21:10;11;9.4;5.4
74434;PMS7003;62867;52.038;29.256;2023-04-03T10:26:48;12.4;9.8;5.6
74434;PMS7003;62867;52.038;29.256;2023-04-03T10:31:31;10.4;7.8;5.2
74434;PMS7003;62867;52.038;29.256;2023-04-03T10:36:48;19.8;16.8;10
74434;PMS7003;62867;52.038;29.256;2023-04-03T10:41:21;43.2;33.8;18.8
74434;PMS7003;62867;52.038;29.256;2023-04-03T10:45:57;50.6;40;24.6
74434;PMS7003;62867;52.038;29.256;2023-04-03T10:51:33;31.8;27;16.8
74434;PMS7003;62867;52.038;29.256;2023-04-03T10:56:30;26.6;22.6;15.6
74434;PMS7003;62867;52.038;29.256;2023-04-03T11:01:46;22.2;19;13.4
74434;PMS7003;62867;52.038;29.256;2023-04-03T11:06:20;20.8;17.8;12.2
74434;PMS7003;62867;52.038;29.256;2023-04-03T11:11:32;18.3;16.5;12.3
74434;PMS7003;62867;52.038;29.256;2023-04-03T11:16:48;17.8;14.6;9.2
74434;PMS7003;62867;52.038;29.256;2023-04-03T11:21:31;25.2;18.4;13.4
74434;PMS7003;62867;52.038;29.256;2023-04-03T11:26:46;21.8;18.6;12.4
74434;PMS7003;62867;52.038;29.256;2023-04-03T11:31:24;22.2;18;11.2
74434;PMS7003;62867;52.038;29.256;2023-04-03T11:36:07;13.4;10.4;6.2
74434;PMS7003;62867;52.038;29.256;2023-04-03T11:41:46;12.4;9.2;6
74434;PMS7003;62867;52.038;29.256;2023-04-03T11:46:48;12.6;10.4;6.4
74434;PMS7003;62867;52.038;29.256;2023-04-03T11:51:46;11.8;9.8;5.8
74434;PMS7003;62867;52.038;29.256;2023-04-03T11:55:57;12;8.4;5.2
74434;PMS7003;62867;52.038;29.256;2023-04-03T12:01:47;13.4;10.4;5.8
74434;PMS7003;62867;52.038;29.256;2023-04-03T12:06:52;10.4;9.2;5.6
74434;PMS7003;62867;52.038;29.256;2023-04-03T12:11:30;11.8;9.8;5.8
74434;PMS7003;62867;52.038;29.256;2023-04-03T12:16:48;16.4;12.2;7.6
74434;PMS7003;62867;52.038;29.256;2023-04-03T12:21:20;19.2;16.6;9.2
74434;PMS7003;62867;52.038;29.256;2023-04-03T12:26:34;28.4;22.8;14.6
74434;PMS7003;62867;52.038;29.256;2023-04-03T12:31:22;18.8;14.6;8.2
74434;PMS7003;62867;52.038;29.256;2023-04-03T12:36:29;15.6;11.6;7.4
74434;PMS7003;62867;52.038;29.256;2023-04-03T12:41:48;13.6;10.2;6.4
74434;PMS7003;62867;52.038;29.256;2023-04-03T12:46:21;13.6;10.6;6.6
74434;PMS7003;62867;52.038;29.256;2023-04-03T12:51:06;14.4;11.6;8
74434;PMS7003;62867;52.038;29.256;2023-04-03T12:56:21;15.2;13.2;8
74434;PMS7003;62867;52.038;29.256;2023-04-03T13:01:30;15.8;13;8.4
74434;PMS7003;62867;52.038;29.256;2023-04-03T13:06:46;16.4;15;9
74434;PMS7003;62867;52.038;29.256;2023-04-03T13:11:20;22.5;18.8;11.8
74434;PMS7003;62867;52.038;29.256;2023-04-03T13:16:07;25.4;21.6;14.2
74434;PMS7003;62867;52.038;29.256;2023-04-03T13:21:11;21.2;17.4;10
74434;PMS7003;62867;52.038;29.256;2023-04-03T13:26:30;17.4;14.4;9
74434;PMS7003;62867;52.038;29.256;2023-04-03T13:31:44;13.8;10.8;6.4
74434;PMS7003;62867;52.038;29.256;2023-04-03T13:36:21;13.6;9.8;6.6
74434;PMS7003;62867;52.038;29.256;2023-04-03T13:40:56;13.4;11.2;8
74434;PMS7003;62867;52.038;29.256;2023-04-03T13:45:57;21.6;17;11
74434;PMS7003;62867;52.038;29.256;2023-04-03T13:51:32;19.4;14.8;10
74434;PMS7003;62867;52.038;29.256;2023-04-03T13:56:52;22.6;17.4;10.4
74434;PMS7003;62867;52.038;29.256;2023-04-03T14:01:20;17.2;14.2;9
74434;PMS7003;62867;52.038;29.256;2023-04-03T14:06:40;20;15.4;9.6
74434;PMS7003;62867;52.038;29.256;2023-04-03T14:11:20;28.5;23;13
74434;PMS7003;62867;52.038;29.256;2023-04-03T14:16:18;21;16.4;10.4
74434;PMS7003;62867;52.038;29.256;2023-04-03T14:21:48;19.8;13.4;8.4
74434;PMS7003;62867;52.038;29.256;2023-04-03T14:26:20;23.8;18.2;11.6
74434;PMS7003;62867;52.038;29.256;2023-04-03T14:30:56;22;18.6;11.2
74434;PMS7003;62867;52.038;29.256;2023-04-03T14:36:11;18.8;14.8;9.2
74434;PMS7003;62867;52.038;29.256;2023-04-03T14:41:32;17.8;14;9
74434;PMS7003;62867;52.038;29.256;2023-04-03T14:46:48;15;12;8.2
74434;PMS7003;62867;52.038;29.256;2023-04-03T14:51:06;20;17;10.8
74434;PMS7003;62867;52.038;29.256;2023-04-03T14:56:50;20;15;9.8
74434;PMS7003;62867;52.038;29.256;2023-04-03T15:01:10;18.3;14.7;9.3
74434;PMS7003;62867;52.038;29.256;2023-04-03T15:06:48;28;19.8;10.8
74434;PMS7003;62867;52.038;29.256;2023-04-03T15:11:20;26.6;18.4;10.6
74434;PMS7003;62867;52.038;29.256;2023-04-03T15:16:34;22.8;17.6;9.6
74434;PMS7003;62867;52.038;29.256;2023-04-03T15:21:06;30.8;21.6;11.4
74434;PMS7003;62867;52.038;29.256;2023-04-03T15:26:22;32.2;24.8;13.2
74434;PMS7003;62867;52.038;29.256;2023-04-03T15:31:06;25.8;19.8;12.2
74434;PMS7003;62867;52.038;29.256;2023-04-03T15:36:30;24.8;18.2;10.4
74434;PMS7003;62867;52.038;29.256;2023-04-03T15:41:51;26.8;20;11
74434;PMS7003;62867;52.038;29.256;2023-04-03T15:46:19;37.4;25.8;15.2
74434;PMS7003;62867;52.038;29.256;2023-04-03T15:51:30;31;23.8;14
74434;PMS7003;62867;52.038;29.256;2023-04-03T15:56:10;21.4;16.2;10.2
74434;PMS7003;62867;52.038;29.256;2023-04-03T16:01:32;18.6;15.2;9.4
74434;PMS7003;62867;52.038;29.256;2023-04-03T16:06:48;20;16.4;10
74434;PMS7003;62867;52.038;29.256;2023-04-03T16:11:16;24.8;19.6;11.2
74434;PMS7003;62867;52.038;29.256;2023-04-03T16:16:32;30.8;23;13
74434;PMS7003;62867;52.038;29.256;2023-04-03T16:21:20;22.8;18.2;9.8
74434;PMS7003;62867;52.038;29.256;2023-04-03T16:26:24;24.8;18.6;9.8
74434;PMS7003;62867;52.038;29.256;2023-04-03T16:31:50;24.4;20.2;11.4
74434;PMS7003;62867;52.038;29.256;2023-04-03T16:36:32;42.2;31.4;18
74434;PMS7003;62867;52.038;29.256;2023-04-03T16:41:34;31.4;22.4;12.8
74434;PMS7003;62867;52.038;29.256;2023-04-03T16:46:20;23.4;16;9.4
74434;PMS7003;62867;52.038;29.256;2023-04-03T16:51:35;25;18.5;10.3
74434;PMS7003;62867;52.038;29.256;2023-04-03T16:56:50;33.2;24.4;14.4
74434;PMS7003;62867;52.038;29.256;2023-04-03T17:01:09;26.4;20.2;11
74434;PMS7003;62867;52.038;29.256;2023-04-03T17:06:34;30.2;24.4;13.6
74434;PMS7003;62867;52.038;29.256;2023-04-03T17:10:56;46.6;33.4;18.6
74434;PMS7003;62867;52.038;29.256;2023-04-03T17:16:34;22.6;19.2;10.8
74434;PMS7003;62867;52.038;29.256;2023-04-03T17:21:22;24.4;20.6;11
74434;PMS7003;62867;52.038;29.256;2023-04-03T17:26:06;20.8;19.8;12.4
74434;PMS7003;62867;52.038;29.256;2023-04-03T17:31:50;20.4;17.8;11.2
74434;PMS7003;62867;52.038;29.256;2023-04-03T17:36:20;24;18.2;11.2
74434;PMS7003;62867;52.038;29.256;2023-04-03T17:41:34;25.4;20;12.4
74434;PMS7003;62867;52.038;29.256;2023-04-03T17:46:48;35.6;27;14.8
74434;PMS7003;62867;52.038;29.256;2023-04-03T17:51:19;58.6;40.8;21
74434;PMS7003;62867;52.038;29.256;2023-04-03T17:56:50;60.8;42.3;22
74434;PMS7003;62867;52.038;29.256;2023-04-03T18:01:07;58;41.6;21.6
74434;PMS7003;62867;52.038;29.256;2023-04-03T18:06:36;42;30.4;16.8
74434;PMS7003;62867;52.038;29.256;2023-04-03T18:11:48;57.4;40.4;22.4
74434;PMS7003;62867;52.038;29.256;2023-04-03T18:16:16;50.8;38.6;19.6
74434;PMS7003;62867;52.038;29.256;2023-04-03T18:21:48;43.2;31;16
74434;PMS7003;62867;52.038;29.256;2023-04-03T18:25:56;51.2;36.8;20.4
74434;PMS7003;62867;52.038;29.256;2023-04-03T18:30:56;37.8;28.6;14.6
74434;PMS7003;62867;52.038;29.256;2023-04-03T18:36:48;34.2;25.4;14.4
74434;PMS7003;62867;52.038;29.256;2023-04-03T18:41:18;28.8;22.4;12.8
74434;PMS7003;62867;52.038;29.256;2023-04-03T18:46:50;23;18.6;11.6
74434;PMS7003;62867;52.038;29.256;2023-04-03T18:50:56;18.2;13.6;8
74434;PMS7003;62867;52.038;29.256;2023-04-03T18:56:34;21.8;16.3;9.5
74434;PMS7003;62867;52.038;29.256;2023-04-03T19:01:38;21.4;16;8.8
74434;PMS7003;62867;52.038;29.256;2023-04-03T19:05:56;19.8;15;8.4
74434;PMS7003;62867;52.038;29.256;2023-04-03T19:11:50;15.2;13.4;8.4
74434;PMS7003;62867;52.038;29.256;2023-04-03T19:15:56;15.2;13.2;7.8
74434;PMS7003;62867;52.038;29.256;2023-04-03T19:21:34;18.4;14.6;8.6
74434;PMS7003;62867;52.038;29.256;2023-04-03T19:26:50;17.8;12.8;7.6
74434;PMS7003;62867;52.038;29.256;2023-04-03T19:31:09;21;17.6;9.6
74434;PMS7003;62867;52.038;29.256;2023-04-03T19:36:50;34;26;14.2
74434;PMS7003;62867;52.038;29.256;2023-04-03T19:41:21;43.6;30.6;16.8
74434;PMS7003;62867;52.038;29.256;2023-04-03T19:46:34;45.8;33.4;15.8
74434;PMS7003;62867;52.038;29.256;2023-04-03T19:51:48;34.2;24.8;14
74434;PMS7003;62867;52.038;29.256;2023-04-03T19:55:56;44.5;33.3;17.3
74434;PMS7003;62867;52.038;29.256;2023-04-03T20:00:58;51.6;37;20
74434;PMS7003;62867;52.038;29.256;2023-04-03T20:06:06;48.4;35;16.8
74434;PMS7003;62867;52.038;29.256;2023-04-03T20:11:34;28.2;20.6;12
74434;PMS7003;62867;52.038;29.256;2023-04-03T20:16:50;19.6;16.2;9.6
74434;PMS7003;62867;52.038;29.256;2023-04-03T20:21:50;33.4;23.2;13.2
74434;PMS7003;62867;52.038;29.256;2023-04-03T20:26:50;30.8;26;14
74434;PMS7003;62867;52.038;29.256;2023-04-03T20:31:06;28.4;21.8;11.6
74434;PMS7003;62867;52.038;29.256;2023-04-03T20:36:34;25.8;21.4;11.2
74434;PMS7003;62867;52.038;29.256;2023-04-03T20:41:50;22.6;18.4;9.8
74434;PMS7003;62867;52.038;29.256;2023-04-03T20:46:18;20.4;15;8.8
74434;PMS7003;62867;52.038;29.256;2023-04-03T20:51:50;28.6;19.6;10.8
74434;PMS7003;62867;52.038;29.256;2023-04-03T20:56:20;33.3;24;13
74434;PMS7003;62867;52.038;29.256;2023-04-03T21:01:34;25.8;19.8;11.2
74434;PMS7003;62867;52.038;29.256;2023-04-03T21:20:56;20.6;15.6;9.2
74434;PMS7003;62867;52.038;29.256;2023-04-03T21:26:34;19.8;16;9.4
74434;PMS7003;62867;52.038;29.256;2023-04-03T21:30:56;18.2;14.4;7.8
74434;PMS7003;62867;52.038;29.256;2023-04-03T21:36:38;16.8;13;7
74434;PMS7003;62867;52.038;29.256;2023-04-03T21:41:50;19.2;14.8;8.2
74434;PMS7003;62867;52.038;29.256;2023-04-03T21:46:20;16;12.8;7.2
74434;PMS7003;62867;52.038;29.256;2023-04-03T21:51:34;15.8;12.6;7.2
74434;PMS7003;62867;52.038;29.256;2023-04-03T21:56:10;16;12.5;7.3
74434;PMS7003;62867;52.038;29.256;2023-04-03T22:01:18;13.4;10.8;5.8
74434;PMS7003;62867;52.038;29.256;2023-04-03T22:06:50;13.6;10.8;6
74434;PMS7003;62867;52.038;29.256;2023-04-03T22:11:07;12.4;10;6.2
74434;PMS7003;62867;52.038;29.256;2023-04-03T22:16:32;14;11.4;6.6
74434;PMS7003;62867;52.038;29.256;2023-04-03T22:21:34;17.2;12.4;7
74434;PMS7003;62867;52.038;29.256;2023-04-03T22:26:18;16.4;12.2;6.6
74434;PMS7003;62867;52.038;29.256;2023-04-03T22:31:50;16;11.6;6.4
74434;PMS7003;62867;52.038;29.256;2023-04-03T22:36:07;13;11.4;6.8
74434;PMS7003;62867;52.038;29.256;2023-04-03T22:41:32;19.2;16;8.4
74434;PMS7003;62867;52.038;29.256;2023-04-03T22:46:07;25.6;18.4;10.2
74434;PMS7003;62867;52.038;29.256;2023-04-03T22:50:56;31.8;24.6;11.6
74434;PMS7003;62867;52.038;29.256;2023-04-03T22:56:50;25.2;20.8;9.6
74434;PMS7003;62867;52.038;29.256;2023-04-03T23:01:20;17;12;6.8
74434;PMS7003;62867;52.038;29.256;2023-04-03T23:06:32;17.4;14;8
74434;PMS7003;62867;52.038;29.256;2023-04-03T23:11:06;19.6;14.8;7.8
74434;PMS7003;62867;52.038;29.256;2023-04-03T23:16:08;17.2;13;7
74434;PMS7003;62867;52.038;29.256;2023-04-03T23:21:48;14.8;12.4;7
74434;PMS7003;62867;52.038;29.256;2023-04-03T23:26:46;18.8;13.4;7.8
74434;PMS7003;62867;52.038;29.256;2023-04-03T23:31:30;14;10.2;6.4
74434;PMS7003;62867;52.038;29.256;2023-04-03T23:35:56;19.4;14.2;8.2
74434;PMS7003;62867;52.038;29.256;2023-04-03T23:41:30;24;17.8;9.6
74434;PMS7003;62867;52.038;29.256;2023-04-03T23:46:44;19.4;15.4;8.2
74434;PMS7003;62867;52.038;29.256;2023-04-03T23:50:56;15;10.6;6.6
74434;PMS7003;62867;52.038;29.256;2023-04-03T23:56:28;12;9;5
